createdAt,value
2018-06-14T00:00:10.465Z,5.37
2018-06-14T00:02:39.098Z,5.03
2018-06-14T00:05:07.701Z,5.17
2018-06-14T00:07:36.469Z,5.20
2018-06-14T00:10:05.077Z,5.30
2018-06-14T00:12:33.857Z,4.93
2018-06-14T00:15:02.459Z,5.70
2018-06-14T00:17:31.108Z,5.77
2018-06-14T00:19:59.686Z,5.77
2018-06-14T00:22:28.277Z,5.50
2018-06-14T00:24:56.838Z,5.40
2018-06-14T00:27:25.434Z,5.67
2018-06-14T00:29:54.081Z,5.47
2018-06-14T00:32:22.972Z,5.93
2018-06-14T00:34:52.072Z,5.40
2018-06-14T00:37:20.595Z,5.50
2018-06-14T00:39:49.173Z,5.20
2018-06-14T00:42:17.827Z,5.50
2018-06-14T00:44:46.568Z,5.43
2018-06-14T00:47:15.426Z,5.30
2018-06-14T00:49:44.341Z,5.87
2018-06-14T00:52:13.105Z,6.03
2018-06-14T00:54:41.874Z,6.10
2018-06-14T00:57:21.531Z,6.07
2018-06-14T00:59:50.260Z,6.00
2018-06-14T01:02:18.955Z,6.50
2018-06-14T01:04:47.779Z,5.20
2018-06-14T01:07:16.448Z,5.63
2018-06-14T01:09:45.132Z,5.80
2018-06-14T01:12:13.937Z,6.20
2018-06-14T01:14:42.593Z,5.90
2018-06-14T01:17:11.444Z,6.30
2018-06-14T01:19:40.310Z,6.07
2018-06-14T01:22:08.956Z,6.40
2018-06-14T01:24:37.693Z,6.03
2018-06-14T01:27:09.089Z,5.50
2018-06-14T01:29:37.875Z,6.20
2018-06-14T01:32:06.479Z,6.00
2018-06-14T01:34:35.015Z,6.37
2018-06-14T01:37:03.505Z,6.50
2018-06-14T01:39:32.136Z,7.13
2018-06-14T01:42:00.640Z,6.37
2018-06-14T01:44:29.183Z,6.03
2018-06-14T01:46:58.085Z,6.30
2018-06-14T01:49:26.730Z,6.70
2018-06-14T01:51:55.267Z,6.47
2018-06-14T01:54:23.892Z,6.07
2018-06-14T01:56:52.505Z,6.27
2018-06-14T01:59:21.046Z,6.50
2018-06-14T02:01:49.697Z,6.40
2018-06-14T02:04:18.247Z,6.40
2018-06-14T02:06:46.909Z,6.20
2018-06-14T02:09:15.752Z,6.40
2018-06-14T02:11:44.587Z,6.73
2018-06-14T02:14:13.287Z,6.23
2018-06-14T02:16:42.090Z,6.50
2018-06-14T02:19:10.717Z,6.67
2018-06-14T02:21:39.351Z,6.67
2018-06-14T02:24:08.008Z,6.83
2018-06-14T02:26:36.652Z,6.80
2018-06-14T02:29:05.320Z,6.97
2018-06-14T02:31:33.924Z,7.37
2018-06-14T02:34:02.802Z,6.77
2018-06-14T02:36:31.615Z,6.73
2018-06-14T02:39:00.310Z,6.20
2018-06-14T02:41:28.978Z,6.03
2018-06-14T02:43:57.747Z,6.70
2018-06-14T02:46:27.139Z,6.83
2018-06-14T02:48:55.915Z,6.77
2018-06-14T02:51:24.531Z,7.00
2018-06-14T02:53:53.343Z,7.73
2018-06-14T02:56:22.097Z,6.97
2018-06-14T02:58:50.720Z,6.70
2018-06-14T03:01:19.401Z,7.70
2018-06-14T03:03:48.030Z,7.50
2018-06-14T03:06:16.659Z,7.20
2018-06-14T03:08:45.335Z,7.07
2018-06-14T03:11:13.988Z,6.87
2018-06-14T03:13:42.617Z,6.93
2018-06-14T03:16:11.262Z,6.90
2018-06-14T03:18:39.851Z,6.83
2018-06-14T03:21:08.569Z,6.67
2018-06-14T03:23:37.258Z,7.53
2018-06-14T03:26:06.033Z,7.20
2018-06-14T03:28:35.653Z,7.77
2018-06-14T03:31:04.392Z,8.00
2018-06-14T03:33:33.027Z,7.30
2018-06-14T03:36:01.747Z,8.40
2018-06-14T03:38:30.467Z,7.27
2018-06-14T03:40:59.199Z,7.30
2018-06-14T03:43:28.053Z,7.80
2018-06-14T03:45:56.828Z,7.47
2018-06-14T03:48:25.643Z,7.87
2018-06-14T03:50:54.341Z,7.03
2018-06-14T03:53:23.045Z,7.87
2018-06-14T03:55:51.788Z,7.73
2018-06-14T03:58:20.455Z,7.47
2018-06-14T04:00:49.278Z,7.57
2018-06-14T04:03:17.894Z,8.17
2018-06-14T04:05:46.618Z,9.37
2018-06-14T04:08:15.260Z,9.60
2018-06-14T04:10:43.880Z,8.13
2018-06-14T04:13:12.479Z,8.57
2018-06-14T04:15:41.302Z,8.27
2018-06-14T04:18:09.946Z,8.70
2018-06-14T04:20:38.728Z,7.93
2018-06-14T04:23:07.402Z,9.10
2018-06-14T04:25:36.061Z,8.10
2018-06-14T04:28:04.701Z,8.57
2018-06-14T04:30:33.335Z,9.03
2018-06-14T04:33:02.211Z,8.87
2018-06-14T04:35:31.136Z,9.27
2018-06-14T04:38:00.053Z,9.17
2018-06-14T04:40:28.989Z,8.20
2018-06-14T04:42:58.059Z,8.60
2018-06-14T04:45:27.347Z,8.73
2018-06-14T04:47:56.478Z,8.90
2018-06-14T04:50:25.524Z,8.67
2018-06-14T04:52:54.636Z,9.27
2018-06-14T04:55:23.312Z,9.13
2018-06-14T04:57:52.168Z,9.17
2018-06-14T05:00:20.972Z,9.90
2018-06-14T05:02:49.706Z,8.77
2018-06-14T05:05:18.527Z,9.97
2018-06-14T05:07:47.330Z,8.97
2018-06-14T05:10:16.860Z,8.73
2018-06-14T05:12:45.498Z,9.87
2018-06-14T05:15:14.237Z,9.30
2018-06-14T05:17:42.835Z,10.10
2018-06-14T05:20:11.526Z,9.83
2018-06-14T05:22:40.212Z,8.53
2018-06-14T05:25:09.678Z,10.27
2018-06-14T05:27:38.326Z,9.97
2018-06-14T05:30:07.147Z,8.53
2018-06-14T05:32:35.808Z,9.30
2018-06-14T05:35:04.495Z,10.10
2018-06-14T05:37:33.222Z,9.37
2018-06-14T05:40:01.866Z,9.37
2018-06-14T05:42:30.693Z,9.33
2018-06-14T05:44:59.316Z,8.87
2018-06-14T05:47:27.980Z,9.80
2018-06-14T05:49:56.551Z,8.00
2018-06-14T05:52:25.176Z,6.87
2018-06-14T05:54:53.930Z,5.03
2018-06-14T05:57:22.593Z,6.33
2018-06-14T05:59:51.225Z,4.83
2018-06-14T06:02:19.852Z,4.17
2018-06-14T06:04:48.568Z,4.40
2018-06-14T06:07:17.292Z,4.00
2018-06-14T06:09:45.960Z,3.93
2018-06-14T06:12:14.657Z,3.80
2018-06-14T06:14:44.000Z,3.50
2018-06-14T06:17:12.600Z,3.47
2018-06-14T06:19:41.184Z,3.97
2018-06-14T06:22:09.830Z,3.83
2018-06-14T06:24:38.665Z,3.90
2018-06-14T06:27:07.715Z,3.63
2018-06-14T06:29:38.887Z,4.23
2018-06-14T06:32:08.480Z,3.53
2018-06-14T06:34:37.159Z,3.50
2018-06-14T06:37:05.749Z,3.70
2018-06-14T06:39:34.299Z,3.80
2018-06-14T06:42:02.837Z,4.03
2018-06-14T06:44:31.438Z,4.43
2018-06-14T06:47:00.016Z,3.63
2018-06-14T06:49:28.944Z,4.23
2018-06-14T06:51:57.423Z,4.13
2018-06-14T06:54:26.007Z,4.27
2018-06-14T06:56:54.562Z,3.87
2018-06-14T06:59:23.236Z,3.83
2018-06-14T07:01:51.809Z,4.17
2018-06-14T07:04:20.644Z,3.47
2018-06-14T07:06:49.231Z,3.77
2018-06-14T07:09:17.864Z,3.53
2018-06-14T07:11:46.574Z,4.07
2018-06-14T07:14:15.252Z,4.10
2018-06-14T07:16:44.044Z,3.77
2018-06-14T07:19:12.832Z,4.10
2018-06-14T07:21:41.614Z,4.07
2018-06-14T07:24:10.586Z,4.13
2018-06-14T07:26:39.443Z,4.20
2018-06-14T07:29:08.180Z,4.23
2018-06-14T07:31:37.225Z,4.50
2018-06-14T07:34:05.932Z,5.03
2018-06-14T07:36:34.714Z,5.10
2018-06-14T07:39:03.925Z,4.43
2018-06-14T07:41:32.455Z,6.30
2018-06-14T07:44:00.967Z,4.37
2018-06-14T07:46:29.818Z,5.10
2018-06-14T07:48:58.921Z,5.07
2018-06-14T07:51:27.757Z,5.43
2018-06-14T07:53:56.602Z,5.00
2018-06-14T07:56:25.375Z,5.30
2018-06-14T07:58:54.075Z,4.90
2018-06-14T08:01:22.682Z,4.80
2018-06-14T08:03:51.497Z,5.20
2018-06-14T08:06:21.952Z,6.10
2018-06-14T08:08:50.624Z,5.50
2018-06-14T08:11:19.402Z,6.10
2018-06-14T08:13:48.295Z,5.63
2018-06-14T08:16:17.079Z,5.60
2018-06-14T08:18:45.758Z,5.70
2018-06-14T08:21:14.348Z,6.20
2018-06-14T08:23:43.026Z,5.30
2018-06-14T08:26:11.685Z,5.23
2018-06-14T08:28:40.306Z,5.43
2018-06-14T08:31:08.932Z,6.27
2018-06-14T08:33:37.612Z,5.63
2018-06-14T08:36:06.128Z,6.17
2018-06-14T08:38:35.575Z,5.27
2018-06-14T08:41:04.758Z,5.63
2018-06-14T08:43:33.622Z,5.30
2018-06-14T08:46:02.445Z,5.20
2018-06-14T08:48:31.198Z,5.27
2018-06-14T08:51:00.018Z,4.60
2018-06-14T08:53:28.802Z,5.20
2018-06-14T08:55:57.559Z,5.17
2018-06-14T08:58:26.214Z,5.57
2018-06-14T09:00:54.822Z,5.50
2018-06-14T09:03:23.641Z,5.60
2018-06-14T09:05:52.390Z,5.20
2018-06-14T09:08:21.069Z,5.87
2018-06-14T09:10:49.678Z,5.50
2018-06-14T09:13:18.298Z,6.40
2018-06-14T09:15:48.118Z,5.97
2018-06-14T09:18:17.077Z,6.37
2018-06-14T09:20:45.996Z,6.03
2018-06-14T09:23:14.699Z,6.07
2018-06-14T09:25:43.395Z,5.97
2018-06-14T09:28:12.017Z,7.47
2018-06-14T09:30:40.707Z,6.97
2018-06-14T09:33:09.306Z,7.30
2018-06-14T09:35:38.151Z,7.20
2018-06-14T09:38:06.876Z,8.17
2018-06-14T09:40:35.581Z,7.93
2018-06-14T09:43:04.272Z,7.37
2018-06-14T09:45:32.931Z,7.97
2018-06-14T09:48:01.956Z,6.97
2018-06-14T09:50:30.553Z,8.73
2018-06-14T09:52:59.204Z,8.67
2018-06-14T09:55:28.118Z,9.63
2018-06-14T09:57:56.792Z,9.20
2018-06-14T10:00:25.516Z,9.77
2018-06-14T10:02:54.161Z,9.43
2018-06-14T10:05:22.812Z,9.70
2018-06-14T10:07:51.852Z,10.20
2018-06-14T10:10:20.588Z,9.70
2018-06-14T10:12:49.259Z,12.37
2018-06-14T10:15:17.956Z,10.17
2018-06-14T10:17:46.680Z,9.60
2018-06-14T10:20:15.301Z,8.30
2018-06-14T10:22:45.252Z,10.20
2018-06-14T10:25:14.138Z,9.23
2018-06-14T10:27:42.849Z,8.17
2018-06-14T10:30:11.627Z,8.70
2018-06-14T10:32:40.180Z,9.27
2018-06-14T10:35:08.775Z,8.33
2018-06-14T10:37:37.463Z,8.50
2018-06-14T10:40:06.136Z,9.23
2018-06-14T10:42:34.816Z,7.97
2018-06-14T10:45:03.516Z,8.43
2018-06-14T10:47:32.117Z,7.93
2018-06-14T10:50:00.862Z,7.90
2018-06-14T10:52:29.510Z,7.37
2018-06-14T10:54:58.183Z,7.37
2018-06-14T10:57:26.780Z,6.33
2018-06-14T10:59:55.488Z,7.07
2018-06-14T11:02:24.184Z,6.73
2018-06-14T11:04:52.940Z,6.50
2018-06-14T11:07:21.646Z,5.70
2018-06-14T11:09:50.287Z,5.20
2018-06-14T11:12:18.972Z,5.03
2018-06-14T11:14:47.608Z,5.73
2018-06-14T11:17:16.183Z,5.23
2018-06-14T11:19:44.720Z,5.63
2018-06-14T11:22:13.311Z,5.80
2018-06-14T11:24:41.922Z,5.60
2018-06-14T11:27:10.487Z,5.30
2018-06-14T11:29:39.139Z,4.80
2018-06-14T11:32:07.952Z,5.00
2018-06-14T11:34:36.587Z,4.70
2018-06-14T11:37:05.205Z,4.20
2018-06-14T11:39:33.952Z,4.30
2018-06-14T11:42:02.706Z,4.20
2018-06-14T11:44:31.275Z,4.00
2018-06-14T11:46:59.903Z,4.50
2018-06-14T11:49:28.520Z,4.33
2018-06-14T11:51:57.664Z,3.63
2018-06-14T11:54:26.175Z,3.70
2018-06-14T11:56:54.891Z,3.43
2018-06-14T11:59:23.696Z,3.97
2018-06-14T12:01:53.022Z,3.80
2018-06-14T12:04:21.521Z,4.20
2018-06-14T12:06:50.268Z,4.17
2018-06-14T12:09:18.945Z,3.97
2018-06-14T12:11:47.571Z,3.20
2018-06-14T12:14:16.362Z,3.67
2018-06-14T12:16:45.092Z,3.77
2018-06-14T12:19:13.755Z,4.23
2018-06-14T12:21:42.346Z,3.87
2018-06-14T12:24:11.105Z,3.87
2018-06-14T12:26:39.734Z,3.57
2018-06-14T12:29:08.341Z,3.77
2018-06-14T12:31:37.383Z,4.13
2018-06-14T12:34:06.012Z,5.17
2018-06-14T12:36:34.562Z,4.57
2018-06-14T12:39:03.284Z,3.73
2018-06-14T12:41:31.955Z,3.97
2018-06-14T12:44:00.564Z,4.87
2018-06-14T12:46:29.192Z,3.93
2018-06-14T12:48:57.747Z,3.80
2018-06-14T12:51:26.440Z,3.83
2018-06-14T12:53:55.021Z,4.07
2018-06-14T12:56:23.588Z,4.13
2018-06-14T12:58:52.252Z,4.13
2018-06-14T13:01:20.789Z,3.83
2018-06-14T13:03:49.311Z,4.10
2018-06-14T13:06:17.926Z,3.47
2018-06-14T13:08:46.572Z,4.40
2018-06-14T13:11:15.192Z,3.77
2018-06-14T13:13:43.925Z,3.57
2018-06-14T13:16:12.787Z,3.63
2018-06-14T13:18:41.819Z,3.60
2018-06-14T13:21:10.638Z,3.30
2018-06-14T13:23:39.444Z,4.43
2018-06-14T13:26:08.289Z,3.80
2018-06-14T13:28:36.992Z,3.83
2018-06-14T13:31:05.789Z,4.00
2018-06-14T13:33:34.621Z,4.10
2018-06-14T13:36:03.545Z,4.37
2018-06-14T13:38:32.283Z,3.83
2018-06-14T13:41:01.200Z,4.07
2018-06-14T13:43:30.283Z,4.00
2018-06-14T13:45:59.179Z,4.10
2018-06-14T13:48:28.189Z,3.50
2018-06-14T13:50:57.140Z,4.07
2018-06-14T13:53:26.072Z,4.20
2018-06-14T13:55:54.888Z,3.90
2018-06-14T13:58:24.011Z,3.80
2018-06-14T14:00:53.745Z,3.17
2018-06-14T14:03:22.593Z,3.50
2018-06-14T14:05:51.423Z,3.93
2018-06-14T14:08:20.317Z,4.13
2018-06-14T14:10:52.426Z,3.67
2018-06-14T14:13:21.139Z,3.80
2018-06-14T14:15:49.825Z,4.33
2018-06-14T14:18:18.466Z,4.27
2018-06-14T14:20:47.277Z,3.57
2018-06-14T14:23:16.350Z,3.70
2018-06-14T14:25:45.036Z,3.57
2018-06-14T14:28:13.774Z,4.00
2018-06-14T14:30:42.441Z,3.30
2018-06-14T14:33:11.585Z,3.57
2018-06-14T14:35:40.588Z,4.00
2018-06-14T14:38:09.368Z,3.83
2018-06-14T14:40:38.061Z,4.10
2018-06-14T14:43:06.835Z,4.10
2018-06-14T14:45:35.371Z,5.03
2018-06-14T14:48:04.204Z,4.30
2018-06-14T14:50:32.930Z,3.80
2018-06-14T14:53:01.711Z,3.80
2018-06-14T14:55:30.486Z,4.03
2018-06-14T14:57:59.391Z,4.47
2018-06-14T15:00:28.352Z,4.80
2018-06-14T15:02:57.175Z,4.57
2018-06-14T15:05:26.114Z,4.63
2018-06-14T15:07:54.864Z,4.30
2018-06-14T15:10:23.666Z,4.73
2018-06-14T15:12:52.552Z,4.70
2018-06-14T15:15:21.215Z,5.07
2018-06-14T15:17:49.939Z,4.63
2018-06-14T15:20:18.567Z,4.77
2018-06-14T15:22:47.257Z,4.67
2018-06-14T15:25:16.013Z,4.87
2018-06-14T15:27:48.415Z,5.90
2018-06-14T15:30:17.083Z,5.23
2018-06-14T15:32:45.673Z,8.57
2018-06-14T15:35:14.452Z,6.43
2018-06-14T15:37:43.045Z,6.30
2018-06-14T15:40:11.608Z,6.37
2018-06-14T15:42:40.264Z,7.80
2018-06-14T15:45:09.025Z,7.93
2018-06-14T15:47:37.551Z,8.40
2018-06-14T15:50:06.170Z,11.20
2018-06-14T15:52:34.823Z,10.67
2018-06-14T15:55:14.724Z,8.20
2018-06-14T15:57:43.407Z,8.80
2018-06-14T16:00:12.388Z,11.13
2018-06-14T16:02:40.976Z,6.63
2018-06-14T16:05:09.867Z,7.57
2018-06-14T16:07:38.513Z,7.37
2018-06-14T16:10:07.080Z,7.73
2018-06-14T16:12:35.603Z,7.37
2018-06-14T16:15:04.441Z,6.57
2018-06-14T16:17:33.026Z,6.33
2018-06-14T16:20:02.761Z,7.03
2018-06-14T16:22:31.834Z,6.73
2018-06-14T16:25:00.537Z,7.83
2018-06-14T16:27:29.466Z,7.43
2018-06-14T16:29:58.080Z,6.90
2018-06-14T16:32:26.809Z,7.00
2018-06-14T16:34:55.307Z,7.20
2018-06-14T16:37:23.847Z,6.83
2018-06-14T16:39:52.446Z,8.17
2018-06-14T16:42:21.009Z,7.43
2018-06-14T16:44:49.627Z,8.27
2018-06-14T16:47:18.297Z,6.53
2018-06-14T16:49:46.966Z,7.47
2018-06-14T16:52:15.562Z,9.17
2018-06-14T16:54:44.359Z,14.00
2018-06-14T16:57:12.901Z,7.17
2018-06-14T16:59:41.801Z,9.77
2018-06-14T17:02:10.483Z,7.20
2018-06-14T17:04:39.148Z,7.27
2018-06-14T17:07:07.702Z,8.90
2018-06-14T17:09:36.429Z,8.70
2018-06-14T17:12:04.990Z,9.37
2018-06-14T17:14:33.539Z,7.70
2018-06-14T17:17:02.024Z,8.60
2018-06-14T17:19:30.761Z,7.67
2018-06-14T17:21:59.430Z,7.73
2018-06-14T17:24:28.180Z,8.87
2018-06-14T17:26:56.741Z,8.17
2018-06-14T17:29:25.698Z,8.10
2018-06-14T17:31:54.470Z,7.43
2018-06-14T17:34:23.287Z,8.27
2018-06-14T17:36:51.871Z,7.50
2018-06-14T17:39:20.590Z,8.23
2018-06-14T17:41:49.254Z,7.73
2018-06-14T17:44:17.915Z,7.50
2018-06-14T17:46:46.576Z,8.20
2018-06-14T17:49:15.514Z,8.80
2018-06-14T17:51:44.199Z,8.83
2018-06-14T17:54:14.258Z,9.13
2018-06-14T17:56:43.110Z,7.80
2018-06-14T17:59:12.589Z,8.63
2018-06-14T18:01:41.866Z,10.87
2018-06-14T18:04:10.774Z,8.63
2018-06-14T18:06:39.900Z,7.30
2018-06-14T18:09:09.952Z,7.03
2018-06-14T18:11:39.280Z,6.70
2018-06-14T18:14:09.097Z,6.50
2018-06-14T18:16:37.969Z,7.43
2018-06-14T18:19:06.711Z,9.37
2018-06-14T18:21:38.368Z,6.90
2018-06-14T18:24:08.707Z,7.33
2018-06-14T18:26:41.458Z,7.37
2018-06-14T18:29:14.902Z,7.87
2018-06-14T18:31:43.699Z,7.57
2018-06-14T18:34:12.445Z,7.50
2018-06-14T18:36:41.332Z,6.40
2018-06-14T18:39:11.476Z,7.40
2018-06-14T18:41:40.317Z,7.70
2018-06-14T18:44:13.936Z,7.27
2018-06-14T18:46:46.037Z,7.10
2018-06-14T18:49:16.690Z,9.70
2018-06-14T18:51:45.553Z,7.73
2018-06-14T18:54:16.185Z,8.53
2018-06-14T18:56:44.860Z,7.60
2018-06-14T18:59:13.761Z,7.43
2018-06-14T19:01:42.873Z,10.00
2018-06-14T19:04:12.244Z,9.20
2018-06-14T19:06:41.126Z,7.37
2018-06-14T19:09:10.849Z,7.70
2018-06-14T19:11:41.313Z,7.87
2018-06-14T19:14:10.456Z,7.37
2018-06-14T19:16:39.507Z,7.03
2018-06-14T19:19:08.262Z,7.00
2018-06-14T19:21:37.023Z,7.20
2018-06-14T19:24:06.596Z,7.60
2018-06-14T19:26:35.439Z,7.90
2018-06-14T19:29:04.243Z,7.17
2018-06-14T19:31:33.154Z,7.27
2018-06-14T19:34:01.892Z,7.23
2018-06-14T19:36:30.655Z,7.33
2018-06-14T19:39:00.153Z,7.40
2018-06-14T19:41:28.950Z,6.93
2018-06-14T19:43:57.704Z,6.53
2018-06-14T19:46:26.445Z,6.73
2018-06-14T19:48:55.552Z,6.80
2018-06-14T19:51:24.312Z,6.40
2018-06-14T19:53:53.079Z,7.53
2018-06-14T19:56:21.707Z,8.37
2018-06-14T19:58:50.319Z,8.23
2018-06-14T20:01:19.033Z,10.87
2018-06-14T20:03:47.645Z,8.00
2018-06-14T20:06:16.308Z,7.70
2018-06-14T20:08:45.096Z,7.93
2018-06-14T20:11:14.029Z,8.03
2018-06-14T20:13:42.652Z,8.27
2018-06-14T20:16:11.329Z,8.00
2018-06-14T20:18:39.986Z,8.30
2018-06-14T20:21:08.583Z,9.03
2018-06-14T20:23:37.412Z,9.03
2018-06-14T20:26:06.134Z,9.80
2018-06-14T20:28:34.671Z,9.17
2018-06-14T20:31:03.223Z,9.83
2018-06-14T20:33:31.879Z,9.43
2018-06-14T20:36:00.458Z,9.83
2018-06-14T20:38:29.291Z,9.80
2018-06-14T20:40:58.176Z,10.40
2018-06-14T20:43:27.301Z,10.23
2018-06-14T20:45:56.367Z,10.23
2018-06-14T20:48:25.402Z,9.97
2018-06-14T20:50:54.181Z,10.90
2018-06-14T20:53:22.726Z,11.03
2018-06-14T20:55:51.888Z,11.23
2018-06-14T20:58:20.431Z,10.77
2018-06-14T21:00:48.982Z,11.43
2018-06-14T21:03:17.631Z,10.77
2018-06-14T21:05:46.201Z,11.67
2018-06-14T21:08:14.707Z,10.90
2018-06-14T21:10:43.313Z,10.80
2018-06-14T21:13:11.823Z,10.50
2018-06-14T21:15:40.432Z,11.40
2018-06-14T21:18:08.973Z,11.13
2018-06-14T21:20:37.581Z,11.10
2018-06-14T21:23:06.081Z,11.03
2018-06-14T21:25:34.557Z,11.13
2018-06-14T21:28:03.088Z,12.27
2018-06-14T21:30:31.556Z,11.53
2018-06-14T21:33:00.044Z,12.00
2018-06-14T21:35:28.879Z,12.07
2018-06-14T21:37:57.423Z,12.03
2018-06-14T21:40:26.528Z,12.77
2018-06-14T21:42:55.360Z,11.27
2018-06-14T21:45:23.944Z,12.40
2018-06-14T21:47:52.680Z,13.17
2018-06-14T21:50:21.288Z,12.77
2018-06-14T21:52:50.072Z,13.97
2018-06-14T21:55:19.709Z,14.50
2018-06-14T21:57:48.435Z,15.00
2018-06-14T22:00:17.052Z,16.30
2018-06-14T22:02:50.869Z,15.87
2018-06-14T22:05:19.622Z,15.87
2018-06-14T22:07:48.150Z,15.43
2018-06-14T22:10:16.668Z,16.03
2018-06-14T22:12:45.398Z,16.00
2018-06-14T22:15:14.015Z,16.80
2018-06-14T22:17:42.584Z,15.43
2018-06-14T22:20:11.108Z,16.30
2018-06-14T22:22:39.714Z,14.23
2018-06-14T22:25:08.252Z,15.40
2018-06-14T22:27:41.616Z,14.73
2018-06-14T22:30:11.769Z,15.20
2018-06-14T22:32:41.298Z,15.10
2018-06-14T22:35:24.361Z,14.50
2018-06-14T22:37:53.082Z,15.63
2018-06-14T22:40:21.816Z,15.23
2018-06-14T22:42:50.414Z,15.37
2018-06-14T22:45:18.948Z,16.37
2018-06-14T22:47:47.578Z,15.90
2018-06-14T22:50:22.109Z,16.77
2018-06-14T22:52:55.228Z,16.10
2018-06-14T22:55:24.624Z,16.80
2018-06-14T22:57:53.171Z,16.87
2018-06-14T23:02:28.319Z,16.13
2018-06-14T23:04:56.955Z,14.67
2018-06-14T23:07:25.545Z,15.57
2018-06-14T23:10:13.863Z,13.73
2018-06-14T23:12:42.470Z,12.90
2018-06-14T23:15:11.217Z,12.27
2018-06-14T23:17:39.723Z,12.33
2018-06-14T23:20:08.247Z,11.97
2018-06-14T23:22:36.776Z,13.80
2018-06-14T23:25:05.312Z,12.40
2018-06-14T23:27:34.003Z,12.23
2018-06-14T23:30:02.620Z,13.10
2018-06-14T23:32:31.236Z,13.20
2018-06-14T23:34:59.871Z,12.20
2018-06-14T23:37:28.519Z,13.23
2018-06-14T23:39:57.791Z,12.13
2018-06-14T23:42:26.383Z,13.53
2018-06-14T23:44:56.397Z,14.57
2018-06-14T23:47:32.225Z,13.47
2018-06-14T23:50:09.841Z,14.03
2018-06-14T23:52:38.919Z,12.93
2018-06-14T23:55:07.525Z,13.73
2018-06-14T23:57:36.265Z,13.63
